New Liberty, Illinois
Current Conditions -  °F | °C
As of 4:35 AM on Friday 21 Nov 2014 (Local Time) from KM30 Reporting Station
Clear Clear  
Wind Chill: 27°   Ceiling: Unl
Heat Index: 27°   Visibility: 10mi
Dew Point: 22°   Wind: 0mph
Humidity: 80%   Direction: NA
Pressure: 30.38"   Gusts: NA
Location:  37.1362°N, 88.5694°W
Report Text: KM30 211035Z AUTO 00000KT 10SM CLR M03/M06 A3038 RMK AO2 T10261056
Loading
Personal Weather Stations






























Interactive Weather Map New forecast layout! Learn more

10-Day Weather Forecast

Advertisements
Track Severe Weather on mobile